createdAt,value
2023-04-08T00:00:06.721Z,8.30
2023-04-08T00:03:32.897Z,7.72
2023-04-08T00:06:42.896Z,9.27
2023-04-08T00:09:48.100Z,7.00
2023-04-08T00:13:02.060Z,10.38
2023-04-08T00:16:11.519Z,8.68
2023-04-08T00:19:19.532Z,8.07
2023-04-08T00:22:25.066Z,10.48
2023-04-08T00:25:31.778Z,6.82
2023-04-08T00:28:36.951Z,8.43
2023-04-08T00:31:47.024Z,7.13
2023-04-08T00:34:53.050Z,7.32
2023-04-08T00:37:59.427Z,8.63
2023-04-08T00:41:05.480Z,8.45
2023-04-08T00:44:11.082Z,8.48
2023-04-08T00:47:22.193Z,7.78
2023-04-08T00:50:29.563Z,8.80
2023-04-08T00:53:35.637Z,8.00
2023-04-08T00:56:42.171Z,9.90
2023-04-08T00:59:47.502Z,7.97
2023-04-08T01:03:00.373Z,7.70
2023-04-08T01:06:18.224Z,7.30
2023-04-08T01:09:27.760Z,8.98
2023-04-08T01:12:34.716Z,8.20
2023-04-08T01:15:56.316Z,8.95
2023-04-08T01:19:06.559Z,8.57
2023-04-08T01:22:16.707Z,8.50
2023-04-08T01:25:23.451Z,7.20
2023-04-08T01:28:34.970Z,8.50
2023-04-08T01:31:40.243Z,9.27
2023-04-08T01:34:46.998Z,7.57
2023-04-08T01:37:58.097Z,10.85
2023-04-08T01:41:07.534Z,7.75
2023-04-08T01:44:18.568Z,9.93
2023-04-08T01:47:27.757Z,9.48
2023-04-08T01:50:34.258Z,9.40
2023-04-08T01:53:40.053Z,9.52
2023-04-08T01:56:48.551Z,8.45
2023-04-08T02:00:00.172Z,9.25
2023-04-08T02:03:06.330Z,9.05
2023-04-08T02:06:13.449Z,9.65
2023-04-08T02:09:18.874Z,8.98
2023-04-08T02:12:27.640Z,9.27
2023-04-08T02:15:44.620Z,11.60
2023-04-08T02:18:57.375Z,9.88
2023-04-08T02:22:08.077Z,9.63
2023-04-08T02:25:16.984Z,7.63
2023-04-08T02:28:24.462Z,8.95
2023-04-08T02:31:38.823Z,9.80
2023-04-08T02:34:45.365Z,7.75
2023-04-08T02:37:52.259Z,7.60
2023-04-08T02:40:59.003Z,9.32
2023-04-08T02:44:06.171Z,9.20
2023-04-08T02:47:14.833Z,8.43
2023-04-08T02:50:21.601Z,9.02
2023-04-08T02:53:27.153Z,7.90
2023-04-08T02:56:33.677Z,8.82
2023-04-08T02:59:41.253Z,9.55
2023-04-08T03:02:50.480Z,7.88
2023-04-08T03:05:58.239Z,6.63
2023-04-08T03:09:04.191Z,9.02
2023-04-08T03:12:11.602Z,8.43
2023-04-08T03:15:17.602Z,9.07
2023-04-08T03:18:25.930Z,9.30
2023-04-08T03:21:32.803Z,8.68
2023-04-08T03:24:38.826Z,9.43
2023-04-08T03:27:45.022Z,8.73
2023-04-08T03:30:51.738Z,8.25
2023-04-08T03:34:01.698Z,8.13
2023-04-08T03:37:07.430Z,9.93
2023-04-08T03:40:14.156Z,9.57
2023-04-08T03:43:23.171Z,9.82
2023-04-08T03:46:30.622Z,9.35
2023-04-08T03:49:39.075Z,8.05
2023-04-08T03:52:47.976Z,9.70
2023-04-08T03:55:53.895Z,10.02
2023-04-08T03:58:59.945Z,9.05
2023-04-08T04:02:05.966Z,8.02
2023-04-08T04:05:15.615Z,7.93
2023-04-08T04:08:21.204Z,9.02
2023-04-08T04:11:27.535Z,7.35
2023-04-08T04:14:33.068Z,8.73
2023-04-08T04:17:39.179Z,7.93
2023-04-08T04:20:48.072Z,9.10
2023-04-08T04:23:55.007Z,9.88
2023-04-08T04:27:01.699Z,8.90
2023-04-08T04:30:07.783Z,9.57
2023-04-08T04:33:15.655Z,9.18
2023-04-08T04:36:24.412Z,10.27
2023-04-08T04:39:32.917Z,7.85
2023-04-08T04:42:39.915Z,9.27
2023-04-08T04:45:45.552Z,9.45
2023-04-08T04:48:53.385Z,7.90
2023-04-08T04:52:01.901Z,8.40
2023-04-08T04:55:08.218Z,7.93
2023-04-08T04:58:14.647Z,7.45
2023-04-08T05:01:23.382Z,10.00
2023-04-08T05:04:29.122Z,9.77
2023-04-08T05:07:38.611Z,9.75
2023-04-08T05:10:45.749Z,9.85
2023-04-08T05:13:53.334Z,10.70
2023-04-08T05:16:58.725Z,11.27
2023-04-08T05:20:07.321Z,10.65
2023-04-08T05:23:16.005Z,9.88
2023-04-08T05:26:22.038Z,11.68
2023-04-08T05:29:30.934Z,10.25
2023-04-08T05:32:39.315Z,11.65
2023-04-08T05:35:45.868Z,11.98
2023-04-08T05:38:55.245Z,12.20
2023-04-08T05:42:02.167Z,11.73
2023-04-08T05:45:08.272Z,9.65
2023-04-08T05:48:13.603Z,9.93
2023-04-08T05:51:19.536Z,11.60
2023-04-08T05:54:37.436Z,10.40
2023-04-08T05:57:46.118Z,11.38
2023-04-08T06:00:51.814Z,11.07
2023-04-08T06:04:02.060Z,10.23
2023-04-08T06:07:09.928Z,12.88
2023-04-08T06:10:19.540Z,10.52
2023-04-08T06:13:26.552Z,11.52
2023-04-08T06:16:32.330Z,11.77
2023-04-08T06:19:38.613Z,10.52
2023-04-08T06:22:46.636Z,11.85
2023-04-08T06:25:56.541Z,12.02
2023-04-08T06:29:06.111Z,12.80
2023-04-08T06:32:12.996Z,12.30
2023-04-08T06:35:18.917Z,10.85
2023-04-08T06:38:24.754Z,11.85
2023-04-08T06:41:42.815Z,11.43
2023-04-08T06:44:48.419Z,10.00
2023-04-08T06:47:56.744Z,9.43
2023-04-08T06:51:04.117Z,10.40
2023-04-08T06:54:13.667Z,9.63
2023-04-08T06:57:21.952Z,9.15
2023-04-08T07:00:27.924Z,9.32
2023-04-08T07:03:35.257Z,9.38
2023-04-08T07:06:41.588Z,8.02
2023-04-08T07:09:46.921Z,9.55
2023-04-08T07:12:55.966Z,8.68
2023-04-08T07:16:02.263Z,10.02
2023-04-08T07:19:10.936Z,11.25
2023-04-08T07:22:16.459Z,9.27
2023-04-08T07:25:25.154Z,9.82
2023-04-08T07:28:33.916Z,10.57
2023-04-08T07:31:39.598Z,11.05
2023-04-08T07:34:44.698Z,10.48
2023-04-08T07:37:50.716Z,10.57
2023-04-08T07:40:56.351Z,11.85
2023-04-08T07:44:05.358Z,10.75
2023-04-08T07:47:12.214Z,10.88
2023-04-08T07:50:18.350Z,10.60
2023-04-08T07:53:28.182Z,11.50
2023-04-08T07:56:34.201Z,12.13
2023-04-08T07:59:43.119Z,12.50
2023-04-08T08:02:51.407Z,11.80
2023-04-08T08:05:57.404Z,11.80
2023-04-08T08:09:03.532Z,11.23
2023-04-08T08:12:08.803Z,10.88
2023-04-08T08:15:19.608Z,9.77
2023-04-08T08:18:25.243Z,10.90
2023-04-08T08:21:34.368Z,9.70
2023-04-08T08:24:50.937Z,9.85
2023-04-08T08:28:02.295Z,9.50
2023-04-08T08:31:12.892Z,9.88
2023-04-08T08:34:22.817Z,9.75
2023-04-08T08:37:29.687Z,8.00
2023-04-08T08:40:35.641Z,9.30
2023-04-08T08:43:45.328Z,9.85
2023-04-08T08:46:59.271Z,9.02
2023-04-08T08:50:08.048Z,9.18
2023-04-08T08:53:15.119Z,9.25
2023-04-08T08:56:20.616Z,6.72
2023-04-08T08:59:26.475Z,6.00
2023-04-08T09:02:37.375Z,5.90
2023-04-08T09:05:53.774Z,5.70
2023-04-08T09:08:59.500Z,5.15
2023-04-08T09:12:07.300Z,5.63
2023-04-08T09:15:15.297Z,5.78
2023-04-08T09:18:33.188Z,5.10
2023-04-08T09:21:38.622Z,5.47
2023-04-08T09:24:47.150Z,5.05
2023-04-08T09:27:56.200Z,6.07
2023-04-08T09:31:09.069Z,6.15
2023-04-08T09:34:22.425Z,5.78
2023-04-08T09:37:28.320Z,5.53
2023-04-08T09:40:36.767Z,4.95
2023-04-08T09:43:49.704Z,4.20
2023-04-08T09:50:05.586Z,4.95
2023-04-08T09:53:15.768Z,5.13
2023-04-08T09:56:23.453Z,5.45
2023-04-08T09:59:31.670Z,6.50
2023-04-08T10:02:41.178Z,6.10
2023-04-08T10:05:50.707Z,5.05
2023-04-08T10:08:58.948Z,5.20
2023-04-08T10:12:05.240Z,5.65
2023-04-08T10:15:26.261Z,4.63
2023-04-08T10:18:34.769Z,4.85
2023-04-08T10:21:50.005Z,4.55
2023-04-08T10:25:10.150Z,4.78
2023-04-08T10:28:33.728Z,3.45
2023-04-08T10:31:45.806Z,3.90
2023-04-08T10:34:56.045Z,4.65
2023-04-08T10:38:10.735Z,4.13
2023-04-08T10:41:21.873Z,4.38
2023-04-08T10:44:30.216Z,3.58
2023-04-08T10:47:37.693Z,2.85
2023-04-08T10:50:44.690Z,4.00
2023-04-08T10:53:55.372Z,3.83
2023-04-08T10:57:01.801Z,3.38
2023-04-08T11:00:08.397Z,3.50
2023-04-08T11:03:16.166Z,3.83
2023-04-08T11:06:22.514Z,3.22
2023-04-08T11:09:31.131Z,3.35
2023-04-08T11:12:39.146Z,3.88
2023-04-08T11:15:46.248Z,3.95
2023-04-08T11:18:52.127Z,3.20
2023-04-08T11:21:59.989Z,3.58
2023-04-08T11:25:08.783Z,3.63
2023-04-08T11:28:16.208Z,4.30
2023-04-08T11:31:24.827Z,3.67
2023-04-08T11:34:30.861Z,3.13
2023-04-08T11:37:42.921Z,3.20
2023-04-08T11:44:11.926Z,3.03
2023-04-08T11:47:20.078Z,2.80
2023-04-08T11:50:31.301Z,3.70
2023-04-08T11:53:39.043Z,3.88
2023-04-08T11:56:51.069Z,3.13
2023-04-08T12:00:00.025Z,3.90
2023-04-08T12:03:08.639Z,3.10
2023-04-08T12:06:18.408Z,4.13
2023-04-08T12:09:26.615Z,3.47
2023-04-08T12:12:32.519Z,4.07
2023-04-08T12:15:41.623Z,3.45
2023-04-08T12:18:49.808Z,2.90
2023-04-08T12:21:57.798Z,2.83
2023-04-08T12:25:04.172Z,3.63
2023-04-08T12:28:11.921Z,3.67
2023-04-08T12:31:20.590Z,4.10
2023-04-08T12:34:26.739Z,3.40
2023-04-08T12:37:33.719Z,3.45
2023-04-08T12:40:42.094Z,3.90
2023-04-08T12:43:50.447Z,3.88
2023-04-08T12:47:01.459Z,3.08
2023-04-08T12:50:10.641Z,3.63
2023-04-08T12:53:16.350Z,4.10
2023-04-08T12:56:24.624Z,4.18
2023-04-08T12:59:38.050Z,4.07
2023-04-08T13:05:54.325Z,3.55
2023-04-08T13:09:02.203Z,3.63
2023-04-08T13:12:12.262Z,3.90
2023-04-08T13:15:18.222Z,4.20
2023-04-08T13:18:24.218Z,3.90
2023-04-08T13:21:37.258Z,3.42
2023-04-08T13:24:42.514Z,3.33
2023-04-08T13:27:49.400Z,3.92
2023-04-08T13:30:58.636Z,3.97
2023-04-08T13:34:08.218Z,3.92
2023-04-08T13:37:20.826Z,3.97
2023-04-08T13:40:30.405Z,3.90
2023-04-08T13:43:38.538Z,3.80
2023-04-08T13:46:44.057Z,5.47
2023-04-08T13:49:49.222Z,3.75
2023-04-08T13:52:59.962Z,3.63
2023-04-08T13:56:05.096Z,4.13
2023-04-08T13:59:14.769Z,3.65
2023-04-08T14:02:21.913Z,3.65
2023-04-08T14:05:28.672Z,3.92
2023-04-08T14:08:36.736Z,3.92
2023-04-08T14:11:46.581Z,4.45
2023-04-08T14:14:58.262Z,4.28
2023-04-08T14:18:09.426Z,3.67
2023-04-08T14:21:19.528Z,4.47
2023-04-08T14:24:28.778Z,3.50
2023-04-08T14:27:47.561Z,3.20
2023-04-08T14:31:00.429Z,4.05
2023-04-08T14:34:06.655Z,4.68
2023-04-08T14:37:12.516Z,3.17
2023-04-08T14:40:21.633Z,3.58
2023-04-08T14:43:28.824Z,3.67
2023-04-08T14:46:34.421Z,3.47
2023-04-08T14:49:40.142Z,3.97
2023-04-08T14:52:45.506Z,3.90
2023-04-08T14:55:54.354Z,3.35
2023-04-08T14:59:00.137Z,3.50
2023-04-08T15:02:07.616Z,4.10
2023-04-08T15:05:16.538Z,3.65
2023-04-08T15:08:24.189Z,3.25
2023-04-08T15:11:32.320Z,3.58
2023-04-08T15:14:38.179Z,3.00
2023-04-08T15:17:51.589Z,3.70
2023-04-08T15:21:12.723Z,3.88
2023-04-08T15:24:20.680Z,3.72
2023-04-08T15:27:31.638Z,3.35
2023-04-08T15:30:38.090Z,4.40
2023-04-08T15:33:47.066Z,4.13
2023-04-08T15:36:53.219Z,3.45
2023-04-08T15:39:59.298Z,3.25
2023-04-08T15:43:10.629Z,3.80
2023-04-08T15:46:22.976Z,3.78
2023-04-08T15:49:29.726Z,3.38
2023-04-08T15:52:37.498Z,3.38
2023-04-08T15:55:42.704Z,3.88
2023-04-08T15:58:51.325Z,3.55
2023-04-08T16:01:56.917Z,3.85
2023-04-08T16:05:02.941Z,4.35
2023-04-08T16:08:10.601Z,3.50
2023-04-08T16:11:18.698Z,4.40
2023-04-08T16:14:31.885Z,4.07
2023-04-08T16:17:39.654Z,3.78
2023-04-08T16:20:47.865Z,4.63
2023-04-08T16:23:53.527Z,3.70
2023-04-08T16:26:58.541Z,4.18
2023-04-08T16:30:15.059Z,3.72
2023-04-08T16:33:26.076Z,4.32
2023-04-08T16:36:41.771Z,3.85
2023-04-08T16:39:49.232Z,4.53
2023-04-08T16:43:00.370Z,3.65
2023-04-08T16:46:34.658Z,3.72
2023-04-08T16:50:01.090Z,3.97
2023-04-08T16:53:10.310Z,3.53
2023-04-08T16:56:46.974Z,4.05
2023-04-08T16:59:54.078Z,4.38
2023-04-08T17:03:02.822Z,3.92
2023-04-08T17:06:22.355Z,3.78
2023-04-08T17:09:27.567Z,3.85
2023-04-08T17:15:59.722Z,4.47
2023-04-08T17:19:14.259Z,3.75
2023-04-08T17:22:23.653Z,3.90
2023-04-08T17:25:29.507Z,3.88
2023-04-08T17:28:34.840Z,3.72
2023-04-08T17:31:49.273Z,3.75
2023-04-08T17:35:02.674Z,3.42
2023-04-08T17:38:09.248Z,3.60
2023-04-08T17:41:38.314Z,4.18
2023-04-08T17:44:46.353Z,3.67
2023-04-08T17:48:12.174Z,3.92
2023-04-08T17:51:31.157Z,4.18
2023-04-08T17:54:36.787Z,3.37
2023-04-08T17:57:45.283Z,2.85
2023-04-08T18:00:51.333Z,3.35
2023-04-08T18:04:02.975Z,3.35
2023-04-08T18:07:12.205Z,3.75
2023-04-08T18:10:20.400Z,3.50
2023-04-08T18:13:28.342Z,3.85
2023-04-08T18:16:37.336Z,3.20
2023-04-08T18:19:46.717Z,3.75
2023-04-08T18:22:58.658Z,4.47
2023-04-08T18:26:05.920Z,4.00
2023-04-08T18:29:13.816Z,3.33
2023-04-08T18:32:22.075Z,2.97
2023-04-08T18:35:27.970Z,3.72
2023-04-08T18:38:37.316Z,3.08
2023-04-08T18:41:45.725Z,3.63
2023-04-08T18:48:33.409Z,2.88
2023-04-08T18:51:40.697Z,3.40
2023-04-08T18:54:53.348Z,3.25
2023-04-08T18:58:01.780Z,3.65
2023-04-08T19:01:12.544Z,3.10
2023-04-08T19:04:21.394Z,3.03
2023-04-08T19:07:30.028Z,3.22
2023-04-08T19:10:38.858Z,3.03
2023-04-08T19:13:47.158Z,2.92
2023-04-08T19:16:53.935Z,4.00
2023-04-08T19:20:00.665Z,4.25
2023-04-08T19:23:10.687Z,3.70
2023-04-08T19:26:28.573Z,3.72
2023-04-08T19:29:37.938Z,3.38
2023-04-08T19:32:44.691Z,3.08
2023-04-08T19:35:51.426Z,3.13
2023-04-08T19:38:58.117Z,2.80
2023-04-08T19:42:07.408Z,2.60
2023-04-08T19:45:16.338Z,2.70
2023-04-08T19:48:29.668Z,2.92
2023-04-08T19:51:53.829Z,3.90
2023-04-08T19:55:00.820Z,2.35
2023-04-08T19:58:21.075Z,3.03
2023-04-08T20:01:27.449Z,3.35
2023-04-08T20:04:35.919Z,2.80
2023-04-08T20:07:46.507Z,2.67
2023-04-08T20:10:52.787Z,3.67
2023-04-08T20:17:27.637Z,3.10
2023-04-08T20:20:33.049Z,2.60
2023-04-08T20:23:48.980Z,2.45
2023-04-08T20:26:54.599Z,2.63
2023-04-08T20:30:03.193Z,2.60
2023-04-08T20:33:13.138Z,2.92
2023-04-08T20:36:27.326Z,2.80
2023-04-08T20:42:43.836Z,3.22
2023-04-08T20:45:53.764Z,2.83
2023-04-08T20:49:04.168Z,2.30
2023-04-08T20:52:15.001Z,2.47
2023-04-08T20:55:29.890Z,2.60
2023-04-08T20:58:41.184Z,2.85
2023-04-08T21:01:50.119Z,3.13
2023-04-08T21:05:01.620Z,2.63
2023-04-08T21:08:08.382Z,2.88
2023-04-08T21:11:14.651Z,2.53
2023-04-08T21:14:20.786Z,3.08
2023-04-08T21:17:35.744Z,3.28
2023-04-08T21:20:45.591Z,2.70
2023-04-08T21:23:51.328Z,2.70
2023-04-08T21:26:58.013Z,3.30
2023-04-08T21:30:04.734Z,3.72
2023-04-08T21:33:18.774Z,2.65
2023-04-08T21:39:32.476Z,3.05
2023-04-08T21:42:38.217Z,2.53
2023-04-08T21:45:45.123Z,2.85
2023-04-08T21:48:53.970Z,3.05
2023-04-08T21:52:01.606Z,4.30
2023-04-08T21:55:32.881Z,2.75
2023-04-08T21:58:42.886Z,3.42
2023-04-08T22:01:58.432Z,3.35
2023-04-08T22:05:12.120Z,3.28
2023-04-08T22:08:17.665Z,2.95
2023-04-08T22:11:26.712Z,3.38
2023-04-08T22:14:32.447Z,3.40
2023-04-08T22:17:41.498Z,3.40
2023-04-08T22:21:04.465Z,2.80
2023-04-08T22:24:16.962Z,3.83
2023-04-08T22:30:55.890Z,3.90
2023-04-08T22:34:13.185Z,3.67
2023-04-08T22:37:20.824Z,3.90
2023-04-08T22:40:31.970Z,3.83
2023-04-08T22:43:40.584Z,4.28
2023-04-08T22:46:48.455Z,3.85
2023-04-08T22:50:04.970Z,3.20
2023-04-08T22:53:11.425Z,3.10
2023-04-08T22:56:29.257Z,3.53
2023-04-08T22:59:36.572Z,3.83
2023-04-08T23:02:45.389Z,4.25
2023-04-08T23:06:00.654Z,3.25
2023-04-08T23:09:08.108Z,3.83
2023-04-08T23:12:18.380Z,4.03
2023-04-08T23:15:25.376Z,3.70
2023-04-08T23:18:33.060Z,3.50
2023-04-08T23:21:40.167Z,3.42
2023-04-08T23:24:49.208Z,4.00
2023-04-08T23:28:07.854Z,3.60
2023-04-08T23:31:15.533Z,3.33
2023-04-08T23:34:25.731Z,3.40
2023-04-08T23:37:38.150Z,3.30
2023-04-08T23:40:52.194Z,3.83
2023-04-08T23:44:02.685Z,3.17
2023-04-08T23:47:12.027Z,3.45
2023-04-08T23:50:27.117Z,3.17
2023-04-08T23:53:34.261Z,2.88
2023-04-08T23:56:43.075Z,3.80
2023-04-08T23:59:52.881Z,3.85
